sensor_id;sensor_type;location;lat;lon;timestamp;temperature;humidity
22098;DHT22;11215;51.938;8.464;2023-02-12T00:00:12;11.30;74.20
22098;DHT22;11215;51.938;8.464;2023-02-12T00:02:41;11.20;74.20
22098;DHT22;11215;51.938;8.464;2023-02-12T00:05:09;11.30;74.30
22098;DHT22;11215;51.938;8.464;2023-02-12T00:07:35;11.30;74.30
22098;DHT22;11215;51.938;8.464;2023-02-12T00:10:01;11.30;74.20
22098;DHT22;11215;51.938;8.464;2023-02-12T00:12:26;11.30;74.20
22098;DHT22;11215;51.938;8.464;2023-02-12T00:14:52;11.20;74.20
22098;DHT22;11215;51.938;8.464;2023-02-12T00:17:20;11.20;74.20
22098;DHT22;11215;51.938;8.464;2023-02-12T00:19:46;11.20;74.20
22098;DHT22;11215;51.938;8.464;2023-02-12T00:22:12;11.20;74.20
22098;DHT22;11215;51.938;8.464;2023-02-12T00:24:38;11.20;74.20
22098;DHT22;11215;51.938;8.464;2023-02-12T00:27:04;11.20;74.20
22098;DHT22;11215;51.938;8.464;2023-02-12T00:29:32;11.20;74.20
22098;DHT22;11215;51.938;8.464;2023-02-12T00:31:58;11.20;74.40
22098;DHT22;11215;51.938;8.464;2023-02-12T00:34:23;11.20;74.40
22098;DHT22;11215;51.938;8.464;2023-02-12T00:36:49;11.20;74.40
22098;DHT22;11215;51.938;8.464;2023-02-12T00:39:15;11.20;74.40
22098;DHT22;11215;51.938;8.464;2023-02-12T00:41:40;11.20;74.40
22098;DHT22;11215;51.938;8.464;2023-02-12T00:44:06;11.20;74.40
22098;DHT22;11215;51.938;8.464;2023-02-12T00:46:34;11.20;74.40
22098;DHT22;11215;51.938;8.464;2023-02-12T00:49:00;11.20;74.40
22098;DHT22;11215;51.938;8.464;2023-02-12T00:51:26;11.20;74.40
22098;DHT22;11215;51.938;8.464;2023-02-12T00:53:51;11.20;74.40
22098;DHT22;11215;51.938;8.464;2023-02-12T00:56:17;11.20;74.40
22098;DHT22;11215;51.938;8.464;2023-02-12T00:58:42;11.20;74.40
22098;DHT22;11215;51.938;8.464;2023-02-12T01:01:08;11.20;74.40
22098;DHT22;11215;51.938;8.464;2023-02-12T01:03:34;11.20;74.40
22098;DHT22;11215;51.938;8.464;2023-02-12T01:06:03;11.20;74.40
22098;DHT22;11215;51.938;8.464;2023-02-12T01:08:30;11.20;74.50
22098;DHT22;11215;51.938;8.464;2023-02-12T01:11:01;11.20;74.40
22098;DHT22;11215;51.938;8.464;2023-02-12T01:13:28;11.20;74.50
22098;DHT22;11215;51.938;8.464;2023-02-12T01:16:24;11.10;74.40
22098;DHT22;11215;51.938;8.464;2023-02-12T01:18:51;11.10;74.70
22098;DHT22;11215;51.938;8.464;2023-02-12T01:21:23;11.10;74.40
22098;DHT22;11215;51.938;8.464;2023-02-12T01:23:49;11.10;74.50
22098;DHT22;11215;51.938;8.464;2023-02-12T01:26:21;11.10;74.50
22098;DHT22;11215;51.938;8.464;2023-02-12T01:28:58;11.10;74.70
22098;DHT22;11215;51.938;8.464;2023-02-12T01:31:28;11.10;74.70
22098;DHT22;11215;51.938;8.464;2023-02-12T01:33:55;11.10;74.60
22098;DHT22;11215;51.938;8.464;2023-02-12T01:36:21;11.10;74.70
22098;DHT22;11215;51.938;8.464;2023-02-12T01:38:48;11.10;74.70
22098;DHT22;11215;51.938;8.464;2023-02-12T01:41:20;11.10;74.70
22098;DHT22;11215;51.938;8.464;2023-02-12T01:44:22;11.10;74.80
22098;DHT22;11215;51.938;8.464;2023-02-12T01:46:58;11.10;74.90
22098;DHT22;11215;51.938;8.464;2023-02-12T01:49:38;11.10;74.80
22098;DHT22;11215;51.938;8.464;2023-02-12T01:54:36;11.10;74.70
22098;DHT22;11215;51.938;8.464;2023-02-12T01:57:04;11.10;74.70
22098;DHT22;11215;51.938;8.464;2023-02-12T01:59:31;11.10;74.70
22098;DHT22;11215;51.938;8.464;2023-02-12T02:01:57;11.10;74.70
22098;DHT22;11215;51.938;8.464;2023-02-12T02:04:27;11.10;74.70
22098;DHT22;11215;51.938;8.464;2023-02-12T02:06:59;11.10;74.80
22098;DHT22;11215;51.938;8.464;2023-02-12T02:09:26;11.10;74.80
22098;DHT22;11215;51.938;8.464;2023-02-12T02:11:53;11.10;75.10
22098;DHT22;11215;51.938;8.464;2023-02-12T02:14:37;11.10;74.80
22098;DHT22;11215;51.938;8.464;2023-02-12T02:33:55;11.00;75.00
22098;DHT22;11215;51.938;8.464;2023-02-12T02:39:29;11.00;75.00
22098;DHT22;11215;51.938;8.464;2023-02-12T02:45:22;11.00;75.50
22098;DHT22;11215;51.938;8.464;2023-02-12T02:47:53;11.00;75.20
22098;DHT22;11215;51.938;8.464;2023-02-12T02:50:22;11.00;75.20
22098;DHT22;11215;51.938;8.464;2023-02-12T02:52:53;11.00;75.20
22098;DHT22;11215;51.938;8.464;2023-02-12T02:55:24;11.00;75.20
22098;DHT22;11215;51.938;8.464;2023-02-12T02:57:51;11.00;75.20
22098;DHT22;11215;51.938;8.464;2023-02-12T03:00:34;11.00;75.20
22098;DHT22;11215;51.938;8.464;2023-02-12T03:03:09;11.00;75.30
22098;DHT22;11215;51.938;8.464;2023-02-12T03:05:42;11.00;75.30
22098;DHT22;11215;51.938;8.464;2023-02-12T03:08:21;11.00;75.40
22098;DHT22;11215;51.938;8.464;2023-02-12T03:11:15;11.00;75.40
22098;DHT22;11215;51.938;8.464;2023-02-12T03:16:34;11.00;75.40
22098;DHT22;11215;51.938;8.464;2023-02-12T03:19:05;11.00;75.20
22098;DHT22;11215;51.938;8.464;2023-02-12T03:27:25;11.00;75.20
22098;DHT22;11215;51.938;8.464;2023-02-12T03:29:53;11.00;75.10
22098;DHT22;11215;51.938;8.464;2023-02-12T03:35:08;11.00;75.30
22098;DHT22;11215;51.938;8.464;2023-02-12T03:43:39;10.90;75.20
22098;DHT22;11215;51.938;8.464;2023-02-12T03:48:49;10.90;75.40
22098;DHT22;11215;51.938;8.464;2023-02-12T03:54:02;10.90;75.30
22098;DHT22;11215;51.938;8.464;2023-02-12T03:56:31;10.90;75.30
22098;DHT22;11215;51.938;8.464;2023-02-12T03:58:57;10.90;75.40
22098;DHT22;11215;51.938;8.464;2023-02-12T04:01:23;10.90;75.40
22098;DHT22;11215;51.938;8.464;2023-02-12T04:03:49;10.90;75.50
22098;DHT22;11215;51.938;8.464;2023-02-12T04:06:27;10.90;75.50
22098;DHT22;11215;51.938;8.464;2023-02-12T04:08:55;10.90;75.80
22098;DHT22;11215;51.938;8.464;2023-02-12T04:19:42;10.80;75.90
22098;DHT22;11215;51.938;8.464;2023-02-12T04:28:24;10.80;76.20
22098;DHT22;11215;51.938;8.464;2023-02-12T04:31:00;10.80;76.00
22098;DHT22;11215;51.938;8.464;2023-02-12T04:33:33;10.80;75.80
22098;DHT22;11215;51.938;8.464;2023-02-12T04:36:07;10.80;76.00
22098;DHT22;11215;51.938;8.464;2023-02-12T04:38:43;10.80;76.00
22098;DHT22;11215;51.938;8.464;2023-02-12T04:41:11;10.80;76.10
22098;DHT22;11215;51.938;8.464;2023-02-12T04:43:40;10.80;75.90
22098;DHT22;11215;51.938;8.464;2023-02-12T04:46:06;10.80;76.00
22098;DHT22;11215;51.938;8.464;2023-02-12T04:48:33;10.80;76.00
22098;DHT22;11215;51.938;8.464;2023-02-12T04:51:02;10.80;76.00
22098;DHT22;11215;51.938;8.464;2023-02-12T04:53:27;10.80;76.10
22098;DHT22;11215;51.938;8.464;2023-02-12T04:55:53;10.80;76.10
22098;DHT22;11215;51.938;8.464;2023-02-12T04:58:19;10.80;76.00
22098;DHT22;11215;51.938;8.464;2023-02-12T05:00:45;10.80;76.00
22098;DHT22;11215;51.938;8.464;2023-02-12T05:03:14;10.80;76.00
22098;DHT22;11215;51.938;8.464;2023-02-12T05:05:39;10.80;76.10
22098;DHT22;11215;51.938;8.464;2023-02-12T05:08:17;10.80;76.00
22098;DHT22;11215;51.938;8.464;2023-02-12T05:10:42;10.80;76.10
22098;DHT22;11215;51.938;8.464;2023-02-12T05:13:09;10.80;76.00
22098;DHT22;11215;51.938;8.464;2023-02-12T05:15:38;10.80;76.20
22098;DHT22;11215;51.938;8.464;2023-02-12T05:18:04;10.80;76.10
22098;DHT22;11215;51.938;8.464;2023-02-12T05:20:29;10.80;76.10
22098;DHT22;11215;51.938;8.464;2023-02-12T05:22:55;10.70;76.10
22098;DHT22;11215;51.938;8.464;2023-02-12T05:25:21;10.70;76.20
22098;DHT22;11215;51.938;8.464;2023-02-12T05:27:47;10.70;76.30
22098;DHT22;11215;51.938;8.464;2023-02-12T05:30:15;10.70;76.20
22098;DHT22;11215;51.938;8.464;2023-02-12T05:32:44;10.70;76.30
22098;DHT22;11215;51.938;8.464;2023-02-12T05:35:10;10.70;76.40
22098;DHT22;11215;51.938;8.464;2023-02-12T05:37:35;10.70;76.40
22098;DHT22;11215;51.938;8.464;2023-02-12T05:40:03;10.70;76.40
22098;DHT22;11215;51.938;8.464;2023-02-12T05:42:29;10.70;77.20
22098;DHT22;11215;51.938;8.464;2023-02-12T05:44:55;10.70;76.40
22098;DHT22;11215;51.938;8.464;2023-02-12T05:47:20;10.70;76.40
22098;DHT22;11215;51.938;8.464;2023-02-12T05:49:46;10.70;76.40
22098;DHT22;11215;51.938;8.464;2023-02-12T05:52:12;10.70;76.40
22098;DHT22;11215;51.938;8.464;2023-02-12T05:54:37;10.70;76.40
22098;DHT22;11215;51.938;8.464;2023-02-12T05:57:03;10.70;76.50
22098;DHT22;11215;51.938;8.464;2023-02-12T05:59:33;10.70;76.40
22098;DHT22;11215;51.938;8.464;2023-02-12T06:01:59;10.70;76.40
22098;DHT22;11215;51.938;8.464;2023-02-12T06:04:26;10.70;76.40
22098;DHT22;11215;51.938;8.464;2023-02-12T06:06:53;10.70;77.30
22098;DHT22;11215;51.938;8.464;2023-02-12T06:09:20;10.70;76.40
22098;DHT22;11215;51.938;8.464;2023-02-12T06:11:46;10.70;76.40
22098;DHT22;11215;51.938;8.464;2023-02-12T06:14:14;10.70;76.40
22098;DHT22;11215;51.938;8.464;2023-02-12T06:16:40;10.60;76.50
22098;DHT22;11215;51.938;8.464;2023-02-12T06:19:06;10.70;76.50
22098;DHT22;11215;51.938;8.464;2023-02-12T06:21:32;10.60;76.50
22098;DHT22;11215;51.938;8.464;2023-02-12T06:23:58;10.70;76.60
22098;DHT22;11215;51.938;8.464;2023-02-12T06:26:24;10.60;76.50
22098;DHT22;11215;51.938;8.464;2023-02-12T06:28:50;10.60;76.50
22098;DHT22;11215;51.938;8.464;2023-02-12T06:31:28;10.70;76.60
22098;DHT22;11215;51.938;8.464;2023-02-12T06:33:56;10.60;76.50
22098;DHT22;11215;51.938;8.464;2023-02-12T06:36:22;10.60;76.50
22098;DHT22;11215;51.938;8.464;2023-02-12T06:38:49;10.60;76.60
22098;DHT22;11215;51.938;8.464;2023-02-12T06:41:15;10.60;76.60
22098;DHT22;11215;51.938;8.464;2023-02-12T06:43:41;10.60;76.60
22098;DHT22;11215;51.938;8.464;2023-02-12T06:46:07;10.60;76.60
22098;DHT22;11215;51.938;8.464;2023-02-12T06:48:33;10.60;76.70
22098;DHT22;11215;51.938;8.464;2023-02-12T06:53:32;10.60;76.90
22098;DHT22;11215;51.938;8.464;2023-02-12T06:56:00;10.60;76.70
22098;DHT22;11215;51.938;8.464;2023-02-12T06:58:25;10.60;76.70
22098;DHT22;11215;51.938;8.464;2023-02-12T07:00:51;10.60;76.60
22098;DHT22;11215;51.938;8.464;2023-02-12T07:03:17;10.60;76.70
22098;DHT22;11215;51.938;8.464;2023-02-12T07:05:42;10.60;76.70
22098;DHT22;11215;51.938;8.464;2023-02-12T07:08:08;10.60;76.70
22098;DHT22;11215;51.938;8.464;2023-02-12T07:10:34;10.50;76.70
22098;DHT22;11215;51.938;8.464;2023-02-12T07:12:59;10.60;76.70
22098;DHT22;11215;51.938;8.464;2023-02-12T07:15:25;10.60;76.70
22098;DHT22;11215;51.938;8.464;2023-02-12T07:17:51;10.50;76.80
22098;DHT22;11215;51.938;8.464;2023-02-12T07:20:16;10.60;76.90
22098;DHT22;11215;51.938;8.464;2023-02-12T07:22:42;10.50;76.80
22098;DHT22;11215;51.938;8.464;2023-02-12T07:25:08;10.50;76.80
22098;DHT22;11215;51.938;8.464;2023-02-12T07:27:37;10.60;77.00
22098;DHT22;11215;51.938;8.464;2023-02-12T07:30:04;10.50;77.10
22098;DHT22;11215;51.938;8.464;2023-02-12T07:32:33;10.50;77.00
22098;DHT22;11215;51.938;8.464;2023-02-12T07:34:59;10.50;77.00
22098;DHT22;11215;51.938;8.464;2023-02-12T07:37:32;10.50;77.00
22098;DHT22;11215;51.938;8.464;2023-02-12T07:40:01;10.50;77.10
22098;DHT22;11215;51.938;8.464;2023-02-12T07:42:27;10.50;77.10
22098;DHT22;11215;51.938;8.464;2023-02-12T07:44:54;10.50;77.00
22098;DHT22;11215;51.938;8.464;2023-02-12T07:47:20;10.60;77.90
22098;DHT22;11215;51.938;8.464;2023-02-12T07:49:45;10.50;77.10
22098;DHT22;11215;51.938;8.464;2023-02-12T07:52:11;10.60;77.20
22098;DHT22;11215;51.938;8.464;2023-02-12T07:54:37;10.60;77.30
22098;DHT22;11215;51.938;8.464;2023-02-12T07:57:03;10.60;77.30
22098;DHT22;11215;51.938;8.464;2023-02-12T07:59:28;10.60;77.30
22098;DHT22;11215;51.938;8.464;2023-02-12T08:01:54;10.60;77.30
22098;DHT22;11215;51.938;8.464;2023-02-12T08:04:22;10.60;77.30
22098;DHT22;11215;51.938;8.464;2023-02-12T08:06:50;10.60;77.40
22098;DHT22;11215;51.938;8.464;2023-02-12T08:09:20;10.70;77.50
22098;DHT22;11215;51.938;8.464;2023-02-12T08:11:46;10.70;77.50
22098;DHT22;11215;51.938;8.464;2023-02-12T08:14:17;10.70;77.40
22098;DHT22;11215;51.938;8.464;2023-02-12T08:16:44;10.70;77.50
22098;DHT22;11215;51.938;8.464;2023-02-12T08:19:11;10.70;77.50
22098;DHT22;11215;51.938;8.464;2023-02-12T08:21:37;10.70;77.30
22098;DHT22;11215;51.938;8.464;2023-02-12T08:24:02;10.70;77.30
22098;DHT22;11215;51.938;8.464;2023-02-12T08:26:31;10.80;77.50
22098;DHT22;11215;51.938;8.464;2023-02-12T08:31:30;10.80;77.40
22098;DHT22;11215;51.938;8.464;2023-02-12T08:33:56;10.80;77.50
22098;DHT22;11215;51.938;8.464;2023-02-12T08:36:36;10.80;77.50
22098;DHT22;11215;51.938;8.464;2023-02-12T08:39:03;10.80;77.50
22098;DHT22;11215;51.938;8.464;2023-02-12T08:41:30;10.90;77.50
22098;DHT22;11215;51.938;8.464;2023-02-12T08:43:58;10.90;77.30
22098;DHT22;11215;51.938;8.464;2023-02-12T08:46:34;10.90;77.40
22098;DHT22;11215;51.938;8.464;2023-02-12T08:49:03;10.90;77.60
22098;DHT22;11215;51.938;8.464;2023-02-12T08:51:33;11.00;77.50
22098;DHT22;11215;51.938;8.464;2023-02-12T08:54:02;11.00;77.50
22098;DHT22;11215;51.938;8.464;2023-02-12T08:56:30;11.00;77.50
22098;DHT22;11215;51.938;8.464;2023-02-12T08:58:56;11.00;77.50
22098;DHT22;11215;51.938;8.464;2023-02-12T09:01:25;11.00;77.40
22098;DHT22;11215;51.938;8.464;2023-02-12T09:03:51;11.10;77.30
22098;DHT22;11215;51.938;8.464;2023-02-12T09:06:19;11.10;77.20
22098;DHT22;11215;51.938;8.464;2023-02-12T09:08:45;11.10;77.20
22098;DHT22;11215;51.938;8.464;2023-02-12T09:11:20;11.10;77.20
22098;DHT22;11215;51.938;8.464;2023-02-12T09:13:49;11.10;77.30
22098;DHT22;11215;51.938;8.464;2023-02-12T09:16:15;11.20;78.10
22098;DHT22;11215;51.938;8.464;2023-02-12T09:18:40;11.20;77.30
22098;DHT22;11215;51.938;8.464;2023-02-12T09:21:11;11.20;77.30
22098;DHT22;11215;51.938;8.464;2023-02-12T09:23:39;11.30;77.20
22098;DHT22;11215;51.938;8.464;2023-02-12T09:26:06;11.30;77.10
22098;DHT22;11215;51.938;8.464;2023-02-12T09:28:33;11.30;77.00
22098;DHT22;11215;51.938;8.464;2023-02-12T09:31:03;11.30;76.90
22098;DHT22;11215;51.938;8.464;2023-02-12T09:33:28;11.40;76.90
22098;DHT22;11215;51.938;8.464;2023-02-12T09:35:54;11.40;76.80
22098;DHT22;11215;51.938;8.464;2023-02-12T09:38:19;11.40;76.80
22098;DHT22;11215;51.938;8.464;2023-02-12T09:46:40;11.50;76.70
22098;DHT22;11215;51.938;8.464;2023-02-12T09:49:11;11.60;76.80
22098;DHT22;11215;51.938;8.464;2023-02-12T09:51:43;11.60;76.60
22098;DHT22;11215;51.938;8.464;2023-02-12T09:54:22;11.60;76.50
22098;DHT22;11215;51.938;8.464;2023-02-12T09:56:53;11.70;76.50
22098;DHT22;11215;51.938;8.464;2023-02-12T10:01:58;11.70;76.50
22098;DHT22;11215;51.938;8.464;2023-02-12T10:04:25;11.80;76.40
22098;DHT22;11215;51.938;8.464;2023-02-12T10:07:11;11.80;76.40
22098;DHT22;11215;51.938;8.464;2023-02-12T10:18:00;12.00;75.60
22098;DHT22;11215;51.938;8.464;2023-02-12T10:20:38;12.00;75.20
22098;DHT22;11215;51.938;8.464;2023-02-12T10:23:22;12.00;75.20
22098;DHT22;11215;51.938;8.464;2023-02-12T10:25:53;12.00;75.10
22098;DHT22;11215;51.938;8.464;2023-02-12T10:28:33;12.10;75.00
22098;DHT22;11215;51.938;8.464;2023-02-12T10:31:06;12.00;74.60
22098;DHT22;11215;51.938;8.464;2023-02-12T10:33:39;12.10;74.50
22098;DHT22;11215;51.938;8.464;2023-02-12T10:36:36;12.10;74.30
22098;DHT22;11215;51.938;8.464;2023-02-12T10:44:16;12.00;74.40
22098;DHT22;11215;51.938;8.464;2023-02-12T10:46:42;12.10;74.40
22098;DHT22;11215;51.938;8.464;2023-02-12T10:49:11;12.10;74.40
22098;DHT22;11215;51.938;8.464;2023-02-12T10:54:37;12.00;74.20
22098;DHT22;11215;51.938;8.464;2023-02-12T10:57:21;12.10;74.20
22098;DHT22;11215;51.938;8.464;2023-02-12T10:59:50;12.00;74.10
22098;DHT22;11215;51.938;8.464;2023-02-12T11:02:29;12.10;74.20
22098;DHT22;11215;51.938;8.464;2023-02-12T11:04:57;12.10;74.20
22098;DHT22;11215;51.938;8.464;2023-02-12T11:07:24;12.00;74.30
22098;DHT22;11215;51.938;8.464;2023-02-12T11:09:52;12.00;75.10
22098;DHT22;11215;51.938;8.464;2023-02-12T11:12:28;12.00;74.20
22098;DHT22;11215;51.938;8.464;2023-02-12T11:14:56;12.00;74.20
22098;DHT22;11215;51.938;8.464;2023-02-12T11:17:26;12.00;74.10
22098;DHT22;11215;51.938;8.464;2023-02-12T11:20:14;12.00;74.20
22098;DHT22;11215;51.938;8.464;2023-02-12T11:22:55;12.00;74.20
22098;DHT22;11215;51.938;8.464;2023-02-12T11:25:23;12.00;74.20
22098;DHT22;11215;51.938;8.464;2023-02-12T11:28:16;12.00;74.30
22098;DHT22;11215;51.938;8.464;2023-02-12T11:31:00;12.00;74.40
22098;DHT22;11215;51.938;8.464;2023-02-12T11:33:29;12.00;74.20
22098;DHT22;11215;51.938;8.464;2023-02-12T11:36:22;12.00;74.40
22098;DHT22;11215;51.938;8.464;2023-02-12T11:38:53;12.00;74.30
22098;DHT22;11215;51.938;8.464;2023-02-12T11:41:23;12.10;74.30
22098;DHT22;11215;51.938;8.464;2023-02-12T11:43:51;12.10;74.40
22098;DHT22;11215;51.938;8.464;2023-02-12T11:46:25;12.10;74.20
22098;DHT22;11215;51.938;8.464;2023-02-12T11:48:53;12.10;74.20
22098;DHT22;11215;51.938;8.464;2023-02-12T11:51:28;12.10;74.20
22098;DHT22;11215;51.938;8.464;2023-02-12T11:53:58;12.10;74.10
22098;DHT22;11215;51.938;8.464;2023-02-12T11:56:24;12.10;74.10
22098;DHT22;11215;51.938;8.464;2023-02-12T11:59:33;12.20;74.10
22098;DHT22;11215;51.938;8.464;2023-02-12T12:02:07;12.20;73.90
22098;DHT22;11215;51.938;8.464;2023-02-12T12:04:39;12.20;73.80
22098;DHT22;11215;51.938;8.464;2023-02-12T12:07:13;12.20;73.70
22098;DHT22;11215;51.938;8.464;2023-02-12T12:10:12;12.20;73.60
22098;DHT22;11215;51.938;8.464;2023-02-12T12:12:48;12.20;73.60
22098;DHT22;11215;51.938;8.464;2023-02-12T12:15:25;12.20;73.70
22098;DHT22;11215;51.938;8.464;2023-02-12T12:18:48;12.20;73.80
22098;DHT22;11215;51.938;8.464;2023-02-12T12:24:28;12.30;74.00
22098;DHT22;11215;51.938;8.464;2023-02-12T12:27:40;12.20;74.10
22098;DHT22;11215;51.938;8.464;2023-02-12T12:30:53;12.20;74.00
22098;DHT22;11215;51.938;8.464;2023-02-12T12:33:34;12.30;74.10
22098;DHT22;11215;51.938;8.464;2023-02-12T12:41:31;12.40;74.20
22098;DHT22;11215;51.938;8.464;2023-02-12T12:49:37;12.50;74.20
22098;DHT22;11215;51.938;8.464;2023-02-12T12:52:38;12.50;73.50
22098;DHT22;11215;51.938;8.464;2023-02-12T13:12:27;12.60;73.00
22098;DHT22;11215;51.938;8.464;2023-02-12T13:18:00;12.70;73.10
22098;DHT22;11215;51.938;8.464;2023-02-12T13:23:53;12.80;73.00
22098;DHT22;11215;51.938;8.464;2023-02-12T13:30:06;12.80;72.60
22098;DHT22;11215;51.938;8.464;2023-02-12T13:32:25;12.90;72.60
22098;DHT22;11215;51.938;8.464;2023-02-12T13:34:53;12.90;72.90
22098;DHT22;11215;51.938;8.464;2023-02-12T13:40:03;13.00;72.60
22098;DHT22;11215;51.938;8.464;2023-02-12T13:48:27;13.10;73.20
22098;DHT22;11215;51.938;8.464;2023-02-12T13:51:35;13.10;71.60
22098;DHT22;11215;51.938;8.464;2023-02-12T13:54:12;13.10;71.20
22098;DHT22;11215;51.938;8.464;2023-02-12T13:56:59;13.20;71.30
22098;DHT22;11215;51.938;8.464;2023-02-12T14:02:03;13.20;71.00
22098;DHT22;11215;51.938;8.464;2023-02-12T14:07:15;13.20;70.90
22098;DHT22;11215;51.938;8.464;2023-02-12T14:09:45;13.20;70.20
22098;DHT22;11215;51.938;8.464;2023-02-12T14:20:43;13.10;70.20
22098;DHT22;11215;51.938;8.464;2023-02-12T14:23:26;13.10;70.40
22098;DHT22;11215;51.938;8.464;2023-02-12T14:26:00;13.10;70.00
22098;DHT22;11215;51.938;8.464;2023-02-12T14:33:43;13.10;70.40
22098;DHT22;11215;51.938;8.464;2023-02-12T14:41:29;13.00;70.20
22098;DHT22;11215;51.938;8.464;2023-02-12T14:49:00;13.00;70.40
22098;DHT22;11215;51.938;8.464;2023-02-12T14:51:56;13.00;70.40
22098;DHT22;11215;51.938;8.464;2023-02-12T14:54:33;13.00;70.10
22098;DHT22;11215;51.938;8.464;2023-02-12T14:57:19;13.00;70.30
22098;DHT22;11215;51.938;8.464;2023-02-12T14:59:47;13.00;70.40
22098;DHT22;11215;51.938;8.464;2023-02-12T15:02:24;13.00;71.10
22098;DHT22;11215;51.938;8.464;2023-02-12T15:04:53;13.00;69.90
22098;DHT22;11215;51.938;8.464;2023-02-12T15:07:30;13.00;70.10
22098;DHT22;11215;51.938;8.464;2023-02-12T15:10:16;13.00;69.90
22098;DHT22;11215;51.938;8.464;2023-02-12T15:13:14;13.00;69.50
22098;DHT22;11215;51.938;8.464;2023-02-12T15:16:12;13.00;69.60
22098;DHT22;11215;51.938;8.464;2023-02-12T15:19:15;13.00;70.00
22098;DHT22;11215;51.938;8.464;2023-02-12T15:21:42;13.00;69.60
22098;DHT22;11215;51.938;8.464;2023-02-12T15:24:12;13.00;70.10
22098;DHT22;11215;51.938;8.464;2023-02-12T15:26:50;13.00;70.10
22098;DHT22;11215;51.938;8.464;2023-02-12T15:29:27;12.90;69.70
22098;DHT22;11215;51.938;8.464;2023-02-12T15:31:59;12.90;69.80
22098;DHT22;11215;51.938;8.464;2023-02-12T15:34:29;13.00;69.80
22098;DHT22;11215;51.938;8.464;2023-02-12T15:36:57;12.90;69.60
22098;DHT22;11215;51.938;8.464;2023-02-12T15:39:24;12.90;69.50
22098;DHT22;11215;51.938;8.464;2023-02-12T15:41:51;12.90;69.50
22098;DHT22;11215;51.938;8.464;2023-02-12T15:44:20;12.90;69.40
22098;DHT22;11215;51.938;8.464;2023-02-12T15:47:21;12.90;69.20
22098;DHT22;11215;51.938;8.464;2023-02-12T15:49:49;12.90;69.00
22098;DHT22;11215;51.938;8.464;2023-02-12T15:52:26;12.90;69.50
22098;DHT22;11215;51.938;8.464;2023-02-12T15:54:59;12.90;69.20
22098;DHT22;11215;51.938;8.464;2023-02-12T15:57:25;12.90;69.50
22098;DHT22;11215;51.938;8.464;2023-02-12T15:59:56;12.90;69.60
22098;DHT22;11215;51.938;8.464;2023-02-12T16:02:29;12.90;69.70
22098;DHT22;11215;51.938;8.464;2023-02-12T16:04:56;12.90;69.50
22098;DHT22;11215;51.938;8.464;2023-02-12T16:07:23;12.90;69.70
22098;DHT22;11215;51.938;8.464;2023-02-12T16:09:50;12.90;69.70
22098;DHT22;11215;51.938;8.464;2023-02-12T16:12:20;12.90;69.70
22098;DHT22;11215;51.938;8.464;2023-02-12T16:14:55;12.80;69.50
22098;DHT22;11215;51.938;8.464;2023-02-12T16:19:54;12.80;69.60
22098;DHT22;11215;51.938;8.464;2023-02-12T16:22:24;12.80;69.70
22098;DHT22;11215;51.938;8.464;2023-02-12T16:24:52;12.80;69.80
22098;DHT22;11215;51.938;8.464;2023-02-12T16:27:23;12.70;69.90
22098;DHT22;11215;51.938;8.464;2023-02-12T16:29:51;12.70;70.00
22098;DHT22;11215;51.938;8.464;2023-02-12T16:35:05;12.70;70.00
22098;DHT22;11215;51.938;8.464;2023-02-12T16:37:48;12.70;70.20
22098;DHT22;11215;51.938;8.464;2023-02-12T16:50:45;12.60;70.30
22098;DHT22;11215;51.938;8.464;2023-02-12T16:53:31;12.60;70.30
22098;DHT22;11215;51.938;8.464;2023-02-12T16:55:59;12.60;70.20
22098;DHT22;11215;51.938;8.464;2023-02-12T16:58:25;12.60;70.40
22098;DHT22;11215;51.938;8.464;2023-02-12T17:00:52;12.50;70.30
22098;DHT22;11215;51.938;8.464;2023-02-12T17:03:18;12.50;70.50
22098;DHT22;11215;51.938;8.464;2023-02-12T17:05:44;12.50;70.50
22098;DHT22;11215;51.938;8.464;2023-02-12T17:08:15;12.50;70.60
22098;DHT22;11215;51.938;8.464;2023-02-12T17:10:41;12.50;70.60
22098;DHT22;11215;51.938;8.464;2023-02-12T17:13:08;12.50;70.60
22098;DHT22;11215;51.938;8.464;2023-02-12T17:15:42;12.50;70.80
22098;DHT22;11215;51.938;8.464;2023-02-12T17:18:09;12.40;70.80
22098;DHT22;11215;51.938;8.464;2023-02-12T17:20:38;12.40;70.80
22098;DHT22;11215;51.938;8.464;2023-02-12T17:23:05;12.40;70.90
22098;DHT22;11215;51.938;8.464;2023-02-12T17:25:31;12.40;70.90
22098;DHT22;11215;51.938;8.464;2023-02-12T17:27:58;12.40;70.90
22098;DHT22;11215;51.938;8.464;2023-02-12T17:30:24;12.40;71.10
22098;DHT22;11215;51.938;8.464;2023-02-12T17:32:51;12.40;71.10
22098;DHT22;11215;51.938;8.464;2023-02-12T17:35:17;12.30;71.10
22098;DHT22;11215;51.938;8.464;2023-02-12T17:37:43;12.30;71.20
22098;DHT22;11215;51.938;8.464;2023-02-12T17:40:09;12.30;71.20
22098;DHT22;11215;51.938;8.464;2023-02-12T17:42:38;12.30;71.20
22098;DHT22;11215;51.938;8.464;2023-02-12T17:45:04;12.30;71.20
22098;DHT22;11215;51.938;8.464;2023-02-12T17:47:29;12.30;71.20
22098;DHT22;11215;51.938;8.464;2023-02-12T17:49:56;12.30;71.20
22098;DHT22;11215;51.938;8.464;2023-02-12T17:52:22;12.30;71.20
22098;DHT22;11215;51.938;8.464;2023-02-12T17:54:47;12.30;71.20
22098;DHT22;11215;51.938;8.464;2023-02-12T17:57:13;12.30;71.30
22098;DHT22;11215;51.938;8.464;2023-02-12T17:59:43;12.30;71.30
22098;DHT22;11215;51.938;8.464;2023-02-12T18:02:10;12.30;71.40
22098;DHT22;11215;51.938;8.464;2023-02-12T18:04:36;12.30;71.40
22098;DHT22;11215;51.938;8.464;2023-02-12T18:07:03;12.30;71.40
22098;DHT22;11215;51.938;8.464;2023-02-12T18:09:29;12.20;71.40
22098;DHT22;11215;51.938;8.464;2023-02-12T18:11:55;12.20;71.40
22098;DHT22;11215;51.938;8.464;2023-02-12T18:14:21;12.20;71.40
22098;DHT22;11215;51.938;8.464;2023-02-12T18:16:47;12.20;71.50
22098;DHT22;11215;51.938;8.464;2023-02-12T18:19:12;12.20;71.50
22098;DHT22;11215;51.938;8.464;2023-02-12T18:21:39;12.20;71.50
22098;DHT22;11215;51.938;8.464;2023-02-12T18:24:05;12.20;71.60
22098;DHT22;11215;51.938;8.464;2023-02-12T18:26:31;12.20;71.70
22098;DHT22;11215;51.938;8.464;2023-02-12T18:28:58;12.20;71.70
22098;DHT22;11215;51.938;8.464;2023-02-12T18:31:25;12.20;71.70
22098;DHT22;11215;51.938;8.464;2023-02-12T18:33:51;12.20;71.70
22098;DHT22;11215;51.938;8.464;2023-02-12T18:36:18;12.20;71.70
22098;DHT22;11215;51.938;8.464;2023-02-12T18:38:46;12.20;71.80
22098;DHT22;11215;51.938;8.464;2023-02-12T18:41:15;12.20;71.70
22098;DHT22;11215;51.938;8.464;2023-02-12T18:43:41;12.20;71.70
22098;DHT22;11215;51.938;8.464;2023-02-12T18:46:16;12.20;71.70
22098;DHT22;11215;51.938;8.464;2023-02-12T18:48:43;12.10;71.70
22098;DHT22;11215;51.938;8.464;2023-02-12T18:51:12;12.10;71.70
22098;DHT22;11215;51.938;8.464;2023-02-12T18:53:38;12.10;71.70
22098;DHT22;11215;51.938;8.464;2023-02-12T18:56:05;12.10;71.80
22098;DHT22;11215;51.938;8.464;2023-02-12T18:58:31;12.10;71.80